createdAt,value
2022-11-16T00:02:20.374Z,99428.97
2022-11-16T00:04:47.018Z,99433.72
2022-11-16T00:07:13.637Z,99419.78
2022-11-16T00:09:40.587Z,99415.63
2022-11-16T00:12:10.593Z,99419.31
2022-11-16T00:14:37.184Z,99422.94
2022-11-16T00:17:04.696Z,99420.31
2022-11-16T00:19:31.449Z,99411.69
2022-11-16T00:21:58.197Z,99415.56
2022-11-16T00:24:24.831Z,99406.41
2022-11-16T00:26:54.483Z,99402.69
2022-11-16T00:29:24.034Z,99405.91
2022-11-16T00:31:51.538Z,99401.09
2022-11-16T00:34:18.542Z,99386.53
2022-11-16T00:36:45.634Z,99396.28
2022-11-16T00:39:14.059Z,99384.72
2022-11-16T00:41:41.561Z,99386.75
2022-11-16T00:44:09.535Z,99398.44
2022-11-16T00:46:36.156Z,99392.56
2022-11-16T00:49:03.233Z,99389.97
2022-11-16T00:51:29.814Z,99386.31
2022-11-16T00:53:56.642Z,99386.47
2022-11-16T00:56:23.324Z,99371.81
2022-11-16T00:58:50.390Z,99379.13
2022-11-16T01:01:17.661Z,99375.97
2022-11-16T01:03:44.463Z,99366.25
2022-11-16T01:06:13.054Z,99365.66
2022-11-16T01:08:41.075Z,99371.41
2022-11-16T01:11:27.818Z,99356.00
2022-11-16T01:13:55.525Z,99362.59
2022-11-16T01:16:23.358Z,99361.78
2022-11-16T01:18:54.704Z,99354.91
2022-11-16T01:21:22.762Z,99357.78
2022-11-16T01:23:50.169Z,99341.53
2022-11-16T01:26:17.064Z,99352.69
2022-11-16T01:28:44.050Z,99356.13
2022-11-16T01:31:11.859Z,99350.72
2022-11-16T01:33:39.210Z,99343.28
2022-11-16T01:36:15.034Z,99342.19
2022-11-16T01:38:45.489Z,99333.16
2022-11-16T01:41:19.279Z,99331.72
2022-11-16T01:44:31.853Z,99324.94
2022-11-16T01:47:10.175Z,99326.19
2022-11-16T01:49:42.911Z,99323.72
2022-11-16T01:52:18.768Z,99315.41
2022-11-16T01:54:48.374Z,99326.13
2022-11-16T01:57:33.797Z,99332.19
2022-11-16T02:00:08.042Z,99329.06
2022-11-16T02:02:40.880Z,99325.28
2022-11-16T02:05:18.298Z,99318.16
2022-11-16T02:08:36.603Z,99321.78
2022-11-16T02:11:34.590Z,99319.63
2022-11-16T02:14:41.216Z,99314.66
2022-11-16T02:17:24.526Z,99325.56
2022-11-16T02:20:15.534Z,99312.66
2022-11-16T02:23:15.748Z,99304.44
2022-11-16T02:26:01.102Z,99303.31
2022-11-16T02:28:39.457Z,99312.25
2022-11-16T02:31:12.569Z,99302.13
2022-11-16T02:33:42.146Z,99305.25
2022-11-16T02:36:12.040Z,99310.31
2022-11-16T02:38:42.024Z,99301.19
2022-11-16T02:41:13.018Z,99300.44
2022-11-16T02:43:47.622Z,99310.50
2022-11-16T02:46:27.062Z,99302.84
2022-11-16T02:48:57.548Z,99304.78
2022-11-16T02:51:27.652Z,99296.84
2022-11-16T02:54:25.035Z,99304.59
2022-11-16T02:56:56.544Z,99294.66
2022-11-16T02:59:35.929Z,99303.94
2022-11-16T03:02:20.835Z,99298.06
2022-11-16T03:04:51.825Z,99307.56
2022-11-16T03:07:26.114Z,99299.59
2022-11-16T03:09:55.573Z,99301.97
2022-11-16T03:12:29.070Z,99302.13
2022-11-16T03:14:59.767Z,99299.22
2022-11-16T03:17:41.026Z,99304.81
2022-11-16T03:20:13.885Z,99300.19
2022-11-16T03:22:54.703Z,99310.00
2022-11-16T03:25:24.720Z,99305.31
2022-11-16T03:28:24.427Z,99319.97
2022-11-16T03:31:13.289Z,99313.25
2022-11-16T03:33:45.908Z,99325.44
2022-11-16T03:36:20.199Z,99314.91
2022-11-16T03:38:50.808Z,99317.66
2022-11-16T03:41:20.392Z,99318.50
2022-11-16T03:43:49.287Z,99312.97
2022-11-16T03:46:17.355Z,99324.09
2022-11-16T03:48:45.721Z,99325.34
2022-11-16T03:51:23.299Z,99329.56
2022-11-16T03:53:49.973Z,99334.09
2022-11-16T03:56:17.918Z,99329.84
2022-11-16T03:58:45.639Z,99323.09
2022-11-16T04:01:12.578Z,99326.00
2022-11-16T04:03:39.941Z,99318.72
2022-11-16T04:06:28.965Z,99328.03
2022-11-16T04:09:14.870Z,99320.78
2022-11-16T04:12:00.745Z,99325.25
2022-11-16T04:14:46.320Z,99331.81
2022-11-16T04:17:36.277Z,99317.00
2022-11-16T04:20:23.355Z,99313.72
2022-11-16T04:23:16.261Z,99316.94
2022-11-16T04:25:44.571Z,99321.50
2022-11-16T04:28:17.682Z,99313.97
2022-11-16T04:31:10.644Z,99318.78
2022-11-16T04:33:58.157Z,99324.50
2022-11-16T04:36:43.434Z,99325.47
2022-11-16T04:39:11.647Z,99322.97
2022-11-16T04:41:57.399Z,99331.63
2022-11-16T04:44:45.114Z,99324.78
2022-11-16T04:47:12.170Z,99320.66
2022-11-16T04:49:39.375Z,99326.63
2022-11-16T04:52:07.062Z,99331.66
2022-11-16T04:54:33.937Z,99321.81
2022-11-16T04:57:02.305Z,99326.94
2022-11-16T04:59:30.390Z,99330.28
2022-11-16T05:02:09.651Z,99331.28
2022-11-16T05:04:47.444Z,99320.31
2022-11-16T05:07:15.032Z,99320.13
2022-11-16T05:09:46.726Z,99311.75
2022-11-16T05:12:23.628Z,99309.56
2022-11-16T05:14:55.287Z,99306.63
2022-11-16T05:17:25.032Z,99311.75
2022-11-16T05:20:10.456Z,99320.03
2022-11-16T05:22:44.871Z,99310.19
2022-11-16T05:25:12.368Z,99317.69
2022-11-16T05:27:39.114Z,99300.28
2022-11-16T05:30:06.673Z,99308.78
2022-11-16T05:32:33.799Z,99304.84
2022-11-16T05:35:00.933Z,99305.28
2022-11-16T05:37:27.673Z,99313.41
2022-11-16T05:39:55.054Z,99311.63
2022-11-16T05:42:26.507Z,99312.13
2022-11-16T05:44:54.366Z,99315.38
2022-11-16T05:47:21.023Z,99319.41
2022-11-16T05:49:47.997Z,99322.22
2022-11-16T05:52:14.737Z,99326.50
2022-11-16T05:54:44.341Z,99317.19
2022-11-16T05:57:11.209Z,99301.59
2022-11-16T05:59:38.805Z,99296.25
2022-11-16T06:02:06.105Z,99298.91
2022-11-16T06:04:34.212Z,99295.34
2022-11-16T06:07:01.522Z,99295.25
2022-11-16T06:09:32.154Z,99306.88
2022-11-16T06:12:05.586Z,99300.16
2022-11-16T06:14:32.360Z,99305.50
2022-11-16T06:16:59.066Z,99302.84
2022-11-16T06:19:31.084Z,99298.41
2022-11-16T06:21:58.999Z,99304.00
2022-11-16T06:24:27.483Z,99302.78
2022-11-16T06:26:54.133Z,99312.50
2022-11-16T06:29:21.119Z,99314.19
2022-11-16T06:31:47.740Z,99304.66
2022-11-16T06:34:14.384Z,99294.66
2022-11-16T06:36:41.301Z,99314.56
2022-11-16T06:39:08.082Z,99325.63
2022-11-16T06:41:41.248Z,99333.97
2022-11-16T06:44:09.299Z,99324.84
2022-11-16T06:46:38.480Z,99333.66
2022-11-16T06:49:05.136Z,99333.56
2022-11-16T06:51:33.607Z,99352.19
2022-11-16T06:54:00.314Z,99341.16
2022-11-16T06:56:27.943Z,99349.34
2022-11-16T06:58:58.240Z,99341.28
2022-11-16T07:01:27.304Z,99342.75
2022-11-16T07:03:59.557Z,99338.31
2022-11-16T07:06:26.655Z,99347.19
2022-11-16T07:08:54.787Z,99340.44
2022-11-16T07:11:25.218Z,99338.97
2022-11-16T07:13:52.268Z,99341.84
2022-11-16T07:16:18.922Z,99340.69
2022-11-16T07:18:52.816Z,99349.94
2022-11-16T07:21:19.506Z,99349.47
2022-11-16T07:23:46.453Z,99350.44
2022-11-16T07:26:18.142Z,99353.50
2022-11-16T07:28:59.625Z,99340.22
2022-11-16T07:31:26.968Z,99341.88
2022-11-16T07:34:22.939Z,99346.81
2022-11-16T07:37:00.783Z,99346.41
2022-11-16T07:39:27.915Z,99341.25
2022-11-16T07:41:55.682Z,99348.06
2022-11-16T07:44:27.595Z,99345.69
2022-11-16T07:47:06.371Z,99352.78
2022-11-16T07:49:35.092Z,99353.75
2022-11-16T07:52:10.482Z,99349.72
2022-11-16T07:54:57.469Z,99347.75
2022-11-16T07:57:26.335Z,99346.16
2022-11-16T07:59:54.980Z,99348.63
2022-11-16T08:02:21.547Z,99333.88
2022-11-16T08:04:50.636Z,99340.34
2022-11-16T08:07:21.120Z,99349.75
2022-11-16T08:09:52.794Z,99348.78
2022-11-16T08:12:20.517Z,99349.97
2022-11-16T08:14:47.285Z,99344.25
2022-11-16T08:17:14.551Z,99347.03
2022-11-16T08:19:42.273Z,99342.69
2022-11-16T08:22:11.810Z,99344.81
2022-11-16T08:24:39.593Z,99350.66
2022-11-16T08:27:06.471Z,99358.41
2022-11-16T08:29:34.485Z,99353.16
2022-11-16T08:32:04.633Z,99351.56
2022-11-16T08:34:33.830Z,99348.41
2022-11-16T08:37:00.669Z,99358.91
2022-11-16T08:39:37.243Z,99366.19
2022-11-16T08:42:03.954Z,99355.47
2022-11-16T08:44:30.586Z,99362.38
2022-11-16T08:47:00.882Z,99372.78
2022-11-16T08:49:35.125Z,99383.69
2022-11-16T08:52:02.029Z,99376.56
2022-11-16T08:54:30.133Z,99368.72
2022-11-16T08:56:57.092Z,99379.75
2022-11-16T08:59:23.707Z,99384.50
2022-11-16T09:01:53.877Z,99388.22
2022-11-16T09:04:20.841Z,99391.34
2022-11-16T09:06:47.707Z,99397.25
2022-11-16T09:09:14.732Z,99397.81
2022-11-16T09:11:41.432Z,99405.16
2022-11-16T09:14:08.883Z,99387.75
2022-11-16T09:16:35.543Z,99400.56
2022-11-16T09:19:02.787Z,99392.88
2022-11-16T09:21:30.265Z,99392.22
2022-11-16T09:23:57.821Z,99386.25
2022-11-16T09:26:26.588Z,99395.75
2022-11-16T09:28:55.826Z,99398.84
2022-11-16T09:31:23.694Z,99409.31
2022-11-16T09:33:50.971Z,99406.44
2022-11-16T09:36:17.658Z,99413.00
2022-11-16T09:41:59.195Z,99411.09
2022-11-16T09:45:17.030Z,99411.09
2022-11-16T09:47:49.519Z,99415.78
2022-11-16T09:50:27.841Z,99424.63
2022-11-16T09:52:57.939Z,99416.06
2022-11-16T09:55:42.164Z,99419.78
2022-11-16T09:58:17.567Z,99424.03
2022-11-16T10:00:49.554Z,99427.38
2022-11-16T10:03:16.378Z,99423.88
2022-11-16T10:06:03.337Z,99413.88
2022-11-16T10:08:43.137Z,99425.56
2022-11-16T10:11:25.054Z,99413.94
2022-11-16T10:14:11.286Z,99429.91
2022-11-16T10:16:58.269Z,99422.59
2022-11-16T10:19:58.805Z,99423.72
2022-11-16T10:22:45.947Z,99427.81
2022-11-16T10:25:22.632Z,99428.84
2022-11-16T10:27:58.115Z,99423.22
2022-11-16T10:30:24.773Z,99416.28
2022-11-16T10:32:51.735Z,99405.97
2022-11-16T10:35:22.759Z,99401.31
2022-11-16T10:37:51.021Z,99406.09
2022-11-16T10:40:27.833Z,99397.75
2022-11-16T10:43:00.899Z,99399.72
2022-11-16T10:45:57.939Z,99402.25
2022-11-16T10:49:07.421Z,99400.72
2022-11-16T10:51:33.970Z,99399.59
2022-11-16T10:54:00.570Z,99396.91
2022-11-16T10:56:37.238Z,99395.25
2022-11-16T10:59:09.733Z,99397.63
2022-11-16T11:01:43.834Z,99383.63
2022-11-16T11:04:31.275Z,99393.19
2022-11-16T11:07:21.147Z,99400.50
2022-11-16T11:09:54.710Z,99404.03
2022-11-16T11:12:38.742Z,99398.78
2022-11-16T11:15:11.760Z,99392.09
2022-11-16T11:17:41.163Z,99383.56
2022-11-16T11:20:19.847Z,99384.19
2022-11-16T11:22:57.709Z,99386.16
2022-11-16T11:25:28.685Z,99387.41
2022-11-16T11:28:18.223Z,99388.13
2022-11-16T11:31:16.227Z,99392.66
2022-11-16T11:33:50.155Z,99396.31
2022-11-16T11:36:20.494Z,99399.72
2022-11-16T11:38:58.292Z,99403.06
2022-11-16T11:41:25.367Z,99387.53
2022-11-16T11:44:14.276Z,99387.75
2022-11-16T11:47:35.200Z,99399.50
2022-11-16T11:49:39.730Z,99394.72
2022-11-16T11:52:17.260Z,99390.50
2022-11-16T11:54:49.381Z,99392.28
2022-11-16T11:57:21.951Z,99400.63
2022-11-16T11:59:52.359Z,99393.28
2022-11-16T12:02:37.475Z,99392.66
2022-11-16T12:05:26.527Z,99391.75
2022-11-16T12:08:38.062Z,99386.13
2022-11-16T12:11:20.845Z,99386.94
2022-11-16T12:14:32.630Z,99380.13
2022-11-16T12:17:36.623Z,99387.66
2022-11-16T12:20:26.791Z,99384.75
2022-11-16T12:23:11.553Z,99373.97
2022-11-16T12:26:03.640Z,99383.22
2022-11-16T12:28:52.169Z,99378.63
2022-11-16T12:31:40.245Z,99387.69
2022-11-16T12:34:44.159Z,99388.22
2022-11-16T12:37:26.018Z,99377.13
2022-11-16T12:40:20.018Z,99378.88
2022-11-16T12:43:03.553Z,99387.31
2022-11-16T12:45:36.508Z,99379.47
2022-11-16T12:48:22.359Z,99383.97
2022-11-16T12:50:56.496Z,99385.28
2022-11-16T12:53:44.444Z,99393.06
2022-11-16T12:56:16.407Z,99377.84
2022-11-16T12:58:49.039Z,99383.09
2022-11-16T13:01:29.201Z,99381.44
2022-11-16T13:04:10.084Z,99378.84
2022-11-16T13:06:42.942Z,99391.16
2022-11-16T13:09:21.325Z,99375.72
2022-11-16T13:11:52.778Z,99385.06
2022-11-16T13:14:25.627Z,99383.41
2022-11-16T13:16:53.661Z,99384.28
2022-11-16T13:19:21.133Z,99380.84
2022-11-16T13:21:51.617Z,99387.50
2022-11-16T13:24:24.387Z,99375.97
2022-11-16T13:26:55.754Z,99378.91
2022-11-16T13:29:37.922Z,99382.13
2022-11-16T13:32:37.700Z,99361.28
2022-11-16T13:35:06.683Z,99372.09
2022-11-16T13:37:39.226Z,99386.66
2022-11-16T13:40:05.733Z,99373.97
2022-11-16T13:42:35.645Z,99370.56
2022-11-16T13:45:17.262Z,99377.16
2022-11-16T13:47:57.031Z,99360.38
2022-11-16T13:50:37.083Z,99369.97
2022-11-16T13:56:07.649Z,99369.56
2022-11-16T13:58:37.661Z,99360.22
2022-11-16T14:01:14.277Z,99365.22
2022-11-16T14:03:44.649Z,99365.75
2022-11-16T14:06:20.441Z,99358.69
2022-11-16T14:08:57.962Z,99365.19
2022-11-16T14:11:35.194Z,99372.06
2022-11-16T14:14:09.233Z,99371.03
2022-11-16T14:16:48.308Z,99363.06
2022-11-16T14:19:49.216Z,99359.66
2022-11-16T14:22:49.736Z,99374.13
2022-11-16T14:25:31.863Z,99364.47
2022-11-16T14:28:08.993Z,99368.97
2022-11-16T14:30:50.866Z,99369.81
2022-11-16T14:33:30.271Z,99364.53
2022-11-16T14:35:57.368Z,99368.03
2022-11-16T14:38:32.562Z,99367.88
2022-11-16T14:41:02.124Z,99369.41
2022-11-16T14:43:39.276Z,99369.03
2022-11-16T14:46:09.284Z,99379.78
2022-11-16T14:48:44.052Z,99374.53
2022-11-16T14:51:20.588Z,99382.19
2022-11-16T14:54:00.727Z,99371.03
2022-11-16T14:56:28.095Z,99362.41
2022-11-16T14:58:58.830Z,99364.69
2022-11-16T15:01:29.340Z,99357.88
2022-11-16T15:04:05.205Z,99358.31
2022-11-16T15:06:40.733Z,99359.81
2022-11-16T15:09:16.800Z,99361.00
2022-11-16T15:12:06.650Z,99359.53
2022-11-16T15:14:39.966Z,99368.63
2022-11-16T15:17:08.936Z,99360.97
2022-11-16T15:19:35.930Z,99365.94
2022-11-16T15:22:04.333Z,99366.13
2022-11-16T15:24:33.864Z,99359.00
2022-11-16T15:27:30.899Z,99378.44
2022-11-16T15:30:01.133Z,99384.72
2022-11-16T15:35:28.044Z,99367.13
2022-11-16T15:38:06.315Z,99364.69
2022-11-16T15:40:34.688Z,99362.78
2022-11-16T15:43:05.515Z,99349.28
2022-11-16T15:45:33.334Z,99351.94
2022-11-16T15:48:03.240Z,99360.16
2022-11-16T15:50:32.029Z,99361.06
2022-11-16T15:52:59.746Z,99355.75
2022-11-16T15:55:39.365Z,99365.78
2022-11-16T15:58:25.738Z,99362.84
2022-11-16T16:00:53.356Z,99368.97
2022-11-16T16:03:26.368Z,99359.47
2022-11-16T16:05:54.400Z,99366.25
2022-11-16T16:08:34.710Z,99364.69
2022-11-16T16:11:05.767Z,99360.94
2022-11-16T16:13:35.836Z,99361.91
2022-11-16T16:16:26.226Z,99365.81
2022-11-16T16:18:55.504Z,99368.22
2022-11-16T16:21:22.793Z,99363.53
2022-11-16T16:23:54.645Z,99362.63
2022-11-16T16:26:22.959Z,99368.63
2022-11-16T16:28:50.330Z,99358.94
2022-11-16T16:31:17.542Z,99364.41
2022-11-16T16:33:44.176Z,99357.31
2022-11-16T16:36:13.426Z,99351.28
2022-11-16T16:38:40.106Z,99360.91
2022-11-16T16:41:07.714Z,99364.00
2022-11-16T16:43:34.892Z,99355.66
2022-11-16T16:46:02.872Z,99357.81
2022-11-16T16:48:29.554Z,99360.84
2022-11-16T16:50:56.157Z,99342.75
2022-11-16T16:53:23.116Z,99358.69
2022-11-16T16:55:49.712Z,99354.09
2022-11-16T16:58:16.326Z,99358.63
2022-11-16T17:00:43.051Z,99355.97
2022-11-16T17:03:10.117Z,99355.38
2022-11-16T17:05:37.573Z,99350.78
2022-11-16T17:08:04.280Z,99355.66
2022-11-16T17:10:30.912Z,99360.34
2022-11-16T17:12:57.830Z,99365.25
2022-11-16T17:15:26.370Z,99366.59
2022-11-16T17:17:53.068Z,99363.50
2022-11-16T17:20:21.305Z,99366.44
2022-11-16T17:22:48.388Z,99363.78
2022-11-16T17:25:15.002Z,99358.50
2022-11-16T17:27:41.593Z,99360.56
2022-11-16T17:30:09.403Z,99365.28
2022-11-16T17:32:35.927Z,99371.91
2022-11-16T17:35:02.498Z,99368.19
2022-11-16T17:37:29.071Z,99369.41
2022-11-16T17:39:55.709Z,99361.75
2022-11-16T17:42:22.312Z,99360.94
2022-11-16T17:44:49.643Z,99361.28
2022-11-16T17:47:16.217Z,99359.06
2022-11-16T17:49:44.227Z,99366.75
2022-11-16T17:52:10.803Z,99357.09
2022-11-16T17:54:37.353Z,99371.53
2022-11-16T17:57:03.945Z,99354.53
2022-11-16T17:59:30.508Z,99355.13
2022-11-16T18:01:58.060Z,99345.44
2022-11-16T18:04:25.246Z,99345.41
2022-11-16T18:06:51.878Z,99350.88
2022-11-16T18:09:18.763Z,99357.13
2022-11-16T18:11:45.875Z,99355.53
2022-11-16T18:14:12.475Z,99356.00
2022-11-16T18:16:42.262Z,99358.38
2022-11-16T18:19:10.235Z,99354.31
2022-11-16T18:21:41.230Z,99358.06
2022-11-16T18:24:08.678Z,99370.22
2022-11-16T18:26:35.316Z,99373.28
2022-11-16T18:29:02.129Z,99385.50
2022-11-16T18:31:29.752Z,99378.56
2022-11-16T18:33:56.562Z,99370.78
2022-11-16T18:36:23.519Z,99370.47
2022-11-16T18:38:50.355Z,99364.91
2022-11-16T18:41:20.715Z,99367.47
2022-11-16T18:43:50.663Z,99352.78
2022-11-16T18:46:22.262Z,99352.75
2022-11-16T18:48:48.818Z,99342.47
2022-11-16T18:51:16.385Z,99349.47
2022-11-16T18:53:43.615Z,99350.97
2022-11-16T18:56:11.799Z,99346.47
2022-11-16T18:58:54.379Z,99345.38
2022-11-16T19:01:24.070Z,99336.31
2022-11-16T19:03:52.048Z,99346.78
2022-11-16T19:06:18.908Z,99346.97
2022-11-16T19:08:53.713Z,99348.53
2022-11-16T19:11:22.765Z,99347.00
2022-11-16T19:13:53.981Z,99341.13
2022-11-16T19:16:20.824Z,99333.41
2022-11-16T19:18:47.995Z,99340.53
2022-11-16T19:21:16.245Z,99323.72
2022-11-16T19:23:48.125Z,99329.88
2022-11-16T19:26:16.336Z,99323.44
2022-11-16T19:28:45.670Z,99332.94
2022-11-16T19:31:16.729Z,99322.06
2022-11-16T19:33:44.434Z,99316.41
2022-11-16T19:36:18.780Z,99333.25
2022-11-16T19:38:47.331Z,99326.81
2022-11-16T19:41:15.440Z,99316.16
2022-11-16T19:43:42.414Z,99317.03
2022-11-16T19:46:11.543Z,99316.97
2022-11-16T19:48:39.193Z,99316.78
2022-11-16T19:51:07.001Z,99319.97
2022-11-16T19:53:34.738Z,99320.50
2022-11-16T19:56:03.699Z,99313.00
2022-11-16T19:58:31.987Z,99303.47
2022-11-16T20:01:03.489Z,99310.31
2022-11-16T20:03:31.365Z,99310.63
2022-11-16T20:06:12.878Z,99315.75
2022-11-16T20:08:41.295Z,99315.13
2022-11-16T20:11:35.387Z,99307.09
2022-11-16T20:14:03.868Z,99312.63
2022-11-16T20:16:38.407Z,99299.09
2022-11-16T20:19:08.933Z,99300.81
2022-11-16T20:21:40.788Z,99308.53
2022-11-16T20:24:10.905Z,99298.88
2022-11-16T20:26:43.217Z,99301.69
2022-11-16T20:29:11.673Z,99304.81
2022-11-16T20:31:42.380Z,99301.44
2022-11-16T20:34:13.881Z,99293.09
2022-11-16T20:36:43.270Z,99294.31
2022-11-16T20:39:18.025Z,99305.31
2022-11-16T20:41:44.995Z,99305.03
2022-11-16T20:44:16.580Z,99314.75
2022-11-16T20:46:45.377Z,99312.41
2022-11-16T20:49:12.426Z,99323.34
2022-11-16T20:51:39.269Z,99318.06
2022-11-16T20:54:06.009Z,99324.63
2022-11-16T20:56:34.268Z,99321.06
2022-11-16T20:59:00.990Z,99326.84
2022-11-16T21:01:33.635Z,99317.88
2022-11-16T21:04:05.602Z,99307.38
2022-11-16T21:06:33.351Z,99307.59
2022-11-16T21:09:00.682Z,99299.91
2022-11-16T21:11:51.643Z,99312.56
2022-11-16T21:14:19.804Z,99295.50
2022-11-16T21:16:46.856Z,99286.69
2022-11-16T21:19:14.078Z,99290.66
2022-11-16T21:21:41.035Z,99285.63
2022-11-16T21:24:08.926Z,99283.63
2022-11-16T21:26:37.009Z,99290.78
2022-11-16T21:29:04.063Z,99288.13
2022-11-16T21:31:33.475Z,99290.34
2022-11-16T21:34:00.874Z,99284.88
2022-11-16T21:36:29.237Z,99284.31
2022-11-16T21:38:56.163Z,99291.00
2022-11-16T21:41:24.020Z,99289.53
2022-11-16T21:43:50.680Z,99286.13
2022-11-16T21:46:20.564Z,99280.41
2022-11-16T21:48:48.132Z,99296.25
2022-11-16T21:51:19.107Z,99285.06
2022-11-16T21:53:46.872Z,99286.06
2022-11-16T21:56:16.346Z,99304.69
2022-11-16T21:58:43.518Z,99309.41
2022-11-16T22:01:11.222Z,99302.38
2022-11-16T22:03:38.452Z,99296.06
2022-11-16T22:06:25.916Z,99297.56
2022-11-16T22:08:53.326Z,99290.06
2022-11-16T22:11:22.451Z,99297.31
2022-11-16T22:13:49.726Z,99280.19
2022-11-16T22:16:19.015Z,99276.31
2022-11-16T22:18:45.954Z,99282.84
2022-11-16T22:21:12.831Z,99276.97
2022-11-16T22:23:39.876Z,99270.97
2022-11-16T22:26:12.106Z,99260.88
2022-11-16T22:28:39.389Z,99262.13
2022-11-16T22:31:08.171Z,99260.88
2022-11-16T22:33:35.469Z,99250.59
2022-11-16T22:36:02.802Z,99255.50
2022-11-16T22:38:29.737Z,99250.44
2022-11-16T22:40:57.290Z,99248.72
2022-11-16T22:43:28.820Z,99241.41
2022-11-16T22:45:59.867Z,99258.19
2022-11-16T22:48:44.955Z,99239.13
2022-11-16T22:51:21.019Z,99244.63
2022-11-16T22:53:48.034Z,99240.56
2022-11-16T22:56:14.605Z,99229.63
2022-11-16T22:58:41.194Z,99232.28
2022-11-16T23:01:09.133Z,99236.38
2022-11-16T23:03:36.640Z,99246.53
2022-11-16T23:06:04.735Z,99248.00
2022-11-16T23:08:32.170Z,99247.47
2022-11-16T23:11:26.149Z,99244.81
2022-11-16T23:14:13.278Z,99236.75
2022-11-16T23:16:40.850Z,99247.28
2022-11-16T23:19:29.552Z,99236.56
2022-11-16T23:22:15.714Z,99226.69
2022-11-16T23:25:02.490Z,99229.22
2022-11-16T23:27:39.426Z,99242.38
2022-11-16T23:30:12.081Z,99228.72
2022-11-16T23:32:39.537Z,99205.34
2022-11-16T23:35:06.485Z,99204.50
2022-11-16T23:37:33.034Z,99200.16
2022-11-16T23:39:59.674Z,99197.91
2022-11-16T23:42:45.312Z,99208.44
2022-11-16T23:45:11.867Z,99206.34
2022-11-16T23:47:38.418Z,99191.22
2022-11-16T23:50:05.714Z,99192.75
2022-11-16T23:52:32.233Z,99185.47
2022-11-16T23:54:59.108Z,99174.09
2022-11-16T23:57:25.653Z,99177.81
2022-11-16T23:59:52.221Z,99170.50
